Kezdőlap
METAR-TAF:

METAR-TAF

Repülőterek :

Waseca Municipal Airport

Waseca, Minnesota, Amerikai Egyesült Államok

földrajzi szélesség: 44-04-24N, földrajzi hosszúság: 093-33-11W, magasság: 343 m

Jelenlegi meteorológiai megfigyelések

A jelentés 17 perccel ezelõtt készült, 13:15 UTC
Északi szél 20 kt széllökések: 25 kt
Hőmérséklet 22°C
Páratartalom 94%
Légköri nyomás 1021 hPa
Látótávolság: 3.2 km
Szórványos felhőzet 900 lábon
Szakadozott felhőzet 2900 lábon
Szakadozott felhőzet 7500 lábon
zivatar, enyhe esõ

METAR: KACQ 281315Z AUTO 35020G25KT 2SM -TSRA SCT009 BKN029 BKN075 22/21 A3015 RMK AO2 VIS 1/4V5 LTG DSNT ALQS

Idő: 08:32 (13:32 UTC)


TAF: hiányzik

Meteorológiai megfigyelések és előrejelzések több, mint 4000 repülőtéren (METAR és TAF jelentéseket).

A térképen piros és sárga pontok jelzik az elérhető meteorológiai állomásokat.

Mozgassa az egeret a pont fölött, hogy megjelenjen az állomás neve.

Azután kattintson az időjárási megfigyelések és előrejelzések megtekintéséhez.

A térkép megváltoztatása: kattintson a fekete keresztel jelölt zöld gombra ráközelítéshez, a vonallal jelölt zöld gombra távolításhoz, vagy a zöld nyilakra a szomszédos térképek eléréséhez.


METAR-TAF: